createdAt,value
2018-09-24T00:03:27.118Z,9.17
2018-09-24T00:07:22.739Z,11.20
2018-09-24T00:11:18.308Z,11.03
2018-09-24T00:15:13.940Z,8.97
2018-09-24T00:19:09.988Z,10.80
2018-09-24T00:23:05.467Z,11.70
2018-09-24T00:27:01.005Z,8.03
2018-09-24T00:30:56.563Z,6.43
2018-09-24T00:34:52.109Z,9.63
2018-09-24T00:38:47.874Z,6.70
2018-09-24T00:42:43.712Z,7.30
2018-09-24T00:46:39.327Z,7.03
2018-09-24T00:50:35.049Z,11.20
2018-09-24T00:54:31.562Z,5.80
2018-09-24T00:58:27.636Z,6.43
2018-09-24T01:02:23.381Z,8.60
2018-09-24T01:06:19.035Z,7.17
2018-09-24T01:10:14.741Z,7.63
2018-09-24T01:14:10.648Z,9.43
2018-09-24T01:18:06.150Z,5.93
2018-09-24T01:22:01.597Z,7.67
2018-09-24T01:25:57.354Z,8.67
2018-09-24T01:29:54.085Z,7.57
2018-09-24T01:33:49.813Z,11.47
2018-09-24T01:37:45.373Z,8.30
2018-09-24T01:41:40.994Z,9.37
2018-09-24T01:45:36.510Z,6.97
2018-09-24T01:49:32.264Z,10.03
2018-09-24T01:53:27.860Z,11.43
2018-09-24T01:57:23.476Z,8.97
2018-09-24T02:01:19.248Z,7.77
2018-09-24T02:05:16.164Z,10.07
2018-09-24T02:09:11.716Z,8.90
2018-09-24T02:13:07.433Z,9.17
2018-09-24T02:17:03.068Z,12.40
2018-09-24T02:20:59.713Z,7.63
2018-09-24T02:24:56.784Z,7.97
2018-09-24T02:28:52.309Z,10.23
2018-09-24T02:32:47.991Z,11.73
2018-09-24T02:36:44.102Z,9.00
2018-09-24T02:40:39.951Z,10.53
2018-09-24T02:44:35.780Z,14.00
2018-09-24T02:48:31.401Z,10.87
2018-09-24T02:52:26.936Z,11.27
2018-09-24T02:56:22.965Z,12.10
2018-09-24T03:00:22.398Z,11.50
2018-09-24T03:04:17.984Z,8.10
2018-09-24T03:08:14.551Z,9.13
2018-09-24T03:12:10.319Z,9.77
2018-09-24T03:16:05.991Z,8.00
2018-09-24T03:20:01.692Z,11.33
2018-09-24T03:23:57.720Z,9.40
2018-09-24T03:27:53.613Z,8.63
2018-09-24T03:31:49.085Z,13.53
2018-09-24T03:35:44.686Z,7.70
2018-09-24T03:39:40.236Z,9.50
2018-09-24T03:43:35.792Z,10.17
2018-09-24T03:47:31.284Z,16.47
2018-09-24T03:51:28.815Z,9.13
2018-09-24T03:55:24.568Z,13.20
2018-09-24T03:59:25.686Z,9.70
2018-09-24T04:03:21.854Z,12.07
2018-09-24T04:07:22.445Z,12.37
2018-09-24T04:11:23.525Z,17.42
2018-09-24T04:15:24.199Z,5.03
2018-09-24T04:19:24.934Z,9.13
2018-09-24T04:23:25.781Z,8.67
2018-09-24T04:27:26.499Z,14.00
2018-09-24T04:31:27.210Z,8.27
2018-09-24T04:35:27.880Z,12.10
2018-09-24T04:39:28.584Z,12.73
2018-09-24T04:43:29.220Z,9.47
2018-09-24T04:47:29.972Z,11.73
2018-09-24T04:51:30.628Z,10.17
2018-09-24T04:55:31.148Z,8.27
2018-09-24T04:59:31.923Z,11.80
2018-09-24T05:03:32.506Z,17.62
2018-09-24T05:07:33.341Z,11.77
2018-09-24T05:11:33.916Z,11.70
2018-09-24T05:15:34.609Z,8.73
2018-09-24T05:19:35.392Z,7.97
2018-09-24T05:23:36.005Z,11.33
2018-09-24T05:27:36.558Z,11.70
2018-09-24T05:31:37.358Z,8.53
2018-09-24T05:35:38.053Z,27.27
2018-09-24T05:39:38.633Z,14.90
2018-09-24T05:43:39.604Z,14.70
2018-09-24T05:47:40.369Z,16.03
2018-09-24T05:51:41.217Z,11.12
2018-09-24T05:55:42.151Z,20.40
2018-09-24T05:59:43.050Z,15.67
2018-09-24T06:03:43.619Z,10.05
2018-09-24T06:07:44.239Z,18.00
2018-09-24T06:11:44.927Z,22.57
2018-09-24T06:15:45.632Z,29.07
2018-09-24T06:19:46.351Z,19.93
2018-09-24T06:23:47.196Z,16.73
2018-09-24T06:27:48.313Z,14.97
2018-09-24T06:31:48.893Z,23.87
2018-09-24T06:35:49.809Z,11.60
2018-09-24T06:39:50.587Z,13.97
2018-09-24T06:43:51.528Z,23.97
2018-09-24T06:47:52.019Z,21.30
2018-09-24T06:51:52.641Z,11.47
2018-09-24T06:55:53.373Z,13.40
2018-09-24T06:59:54.087Z,9.53
2018-09-24T07:03:54.905Z,11.73
2018-09-24T07:07:55.456Z,22.00
2018-09-24T07:11:56.044Z,9.10
2018-09-24T07:15:56.731Z,14.23
2018-09-24T07:19:57.521Z,5.73
2018-09-24T07:23:58.125Z,13.10
2018-09-24T07:27:58.645Z,13.77
2018-09-24T07:31:59.219Z,12.00
2018-09-24T07:35:59.962Z,19.30
2018-09-24T07:40:00.718Z,13.17
2018-09-24T07:44:01.697Z,13.83
2018-09-24T07:48:02.426Z,30.73
2018-09-24T07:52:03.282Z,14.37
2018-09-24T07:56:05.272Z,13.30
2018-09-24T08:00:05.876Z,10.80
2018-09-24T08:04:06.585Z,13.37
2018-09-24T08:08:07.172Z,6.80
2018-09-24T08:12:07.760Z,7.27
2018-09-24T08:16:08.777Z,16.40
2018-09-24T08:20:09.401Z,9.93
2018-09-24T08:24:10.410Z,9.97
2018-09-24T08:28:11.151Z,9.40
2018-09-24T08:32:11.662Z,9.37
2018-09-24T08:36:13.022Z,9.43
2018-09-24T08:40:13.483Z,8.13
2018-09-24T08:44:14.518Z,6.58
2018-09-24T08:48:15.198Z,6.50
2018-09-24T08:52:15.812Z,6.03
2018-09-24T08:56:16.389Z,7.23
2018-09-24T09:00:17.095Z,3.53
2018-09-24T09:04:17.736Z,8.78
2018-09-24T09:08:18.387Z,3.70
2018-09-24T09:12:19.129Z,4.17
2018-09-24T09:16:19.983Z,2.12
2018-09-24T09:20:20.749Z,6.72
2018-09-24T09:24:21.440Z,8.97
2018-09-24T09:28:21.985Z,3.93
2018-09-24T09:32:22.654Z,7.33
2018-09-24T09:36:23.798Z,2.87
2018-09-24T09:40:24.529Z,5.03
2018-09-24T09:44:25.359Z,3.12
2018-09-24T09:48:26.037Z,6.37
2018-09-24T09:52:26.651Z,3.70
2018-09-24T09:56:27.277Z,5.37
2018-09-24T10:00:28.168Z,5.00
2018-09-24T10:04:29.053Z,1.87
2018-09-24T10:08:29.799Z,8.73
2018-09-24T10:12:30.417Z,4.00
2018-09-24T10:16:31.206Z,2.83
2018-09-24T10:20:31.820Z,5.63
2018-09-24T10:24:32.680Z,4.87
2018-09-24T10:28:33.560Z,2.90
2018-09-24T10:32:34.258Z,1.80
2018-09-24T10:36:41.524Z,5.47
2018-09-24T10:40:42.273Z,3.23
2018-09-24T10:44:42.887Z,5.30
2018-09-24T10:48:43.601Z,4.43
2018-09-24T10:52:44.560Z,6.47
2018-09-24T10:56:45.244Z,3.33
2018-09-24T11:00:45.967Z,3.47
2018-09-24T11:08:52.558Z,1.57
2018-09-24T11:12:53.273Z,5.17
2018-09-24T11:16:54.137Z,3.60
2018-09-24T11:20:54.642Z,2.83
2018-09-24T11:24:55.446Z,3.67
2018-09-24T11:28:56.200Z,5.57
2018-09-24T11:32:56.824Z,1.13
2018-09-24T11:36:58.241Z,4.23
2018-09-24T11:40:58.866Z,2.67
2018-09-24T11:44:59.627Z,2.40
2018-09-24T11:49:00.562Z,3.83
2018-09-24T11:53:01.509Z,3.63
2018-09-24T11:57:02.286Z,3.33
2018-09-24T12:01:03.024Z,3.87
2018-09-24T12:05:03.856Z,6.00
2018-09-24T12:09:05.092Z,1.37
2018-09-24T12:13:05.863Z,3.73
2018-09-24T12:17:06.917Z,6.13
2018-09-24T12:21:07.644Z,5.57
2018-09-24T12:25:08.901Z,5.93
2018-09-24T12:29:09.549Z,4.00
2018-09-24T12:33:10.320Z,6.33
2018-09-24T12:37:11.029Z,2.73
2018-09-24T12:41:12.066Z,2.10
2018-09-24T12:45:12.857Z,4.53
2018-09-24T12:49:13.673Z,5.17
2018-09-24T12:53:14.444Z,2.37
2018-09-24T12:57:15.052Z,3.47
2018-09-24T13:01:16.130Z,1.27
2018-09-24T13:05:17.073Z,4.33
2018-09-24T13:09:19.446Z,3.30
2018-09-24T13:13:20.084Z,2.60
2018-09-24T13:17:20.877Z,1.93
2018-09-24T13:21:21.556Z,2.67
2018-09-24T13:25:22.289Z,5.07
2018-09-24T13:29:23.267Z,3.43
2018-09-24T13:33:24.048Z,2.95
2018-09-24T13:37:24.955Z,4.80
2018-09-24T13:41:25.755Z,1.73
2018-09-24T13:45:26.636Z,2.70
2018-09-24T13:49:27.210Z,5.08
2018-09-24T13:53:28.162Z,6.53
2018-09-24T13:57:29.105Z,5.03
2018-09-24T14:01:29.852Z,4.87
2018-09-24T14:05:30.542Z,5.97
2018-09-24T14:09:31.504Z,4.03
2018-09-24T14:13:32.737Z,3.62
2018-09-24T14:17:33.422Z,5.67
2018-09-24T14:21:34.194Z,8.83
2018-09-24T14:25:35.015Z,3.55
2018-09-24T14:29:35.720Z,2.13
2018-09-24T14:33:36.467Z,7.93
2018-09-24T14:37:37.733Z,3.70
2018-09-24T14:41:38.560Z,6.03
2018-09-24T14:45:39.600Z,3.70
2018-09-24T14:49:47.541Z,1.87
2018-09-24T14:53:48.425Z,3.20
2018-09-24T14:57:49.440Z,1.93
2018-09-24T15:01:49.940Z,4.33
2018-09-24T15:05:50.825Z,4.00
2018-09-24T15:09:51.781Z,5.03
2018-09-24T15:13:52.399Z,2.55
2018-09-24T15:17:53.240Z,5.73
2018-09-24T15:21:53.932Z,2.90
2018-09-24T15:25:54.662Z,4.83
2018-09-24T15:29:55.737Z,6.40
2018-09-24T15:33:56.819Z,9.23
2018-09-24T15:37:57.639Z,5.73
2018-09-24T15:41:58.428Z,3.60
2018-09-24T15:45:59.262Z,4.80
2018-09-24T15:50:00.035Z,2.67
2018-09-24T15:54:00.882Z,4.77
2018-09-24T15:58:01.601Z,4.23
2018-09-24T16:02:02.333Z,5.50
2018-09-24T16:06:03.434Z,6.27
2018-09-24T16:10:04.423Z,5.90
2018-09-24T16:14:06.074Z,6.83
2018-09-24T16:18:06.665Z,2.57
2018-09-24T16:22:07.395Z,6.60
2018-09-24T16:26:08.121Z,3.97
2018-09-24T16:30:15.493Z,4.17
2018-09-24T16:34:16.479Z,5.17
2018-09-24T16:42:39.104Z,2.23
2018-09-24T16:46:40.341Z,8.35
2018-09-24T16:50:41.140Z,4.00
2018-09-24T16:54:42.039Z,4.27
2018-09-24T16:58:42.769Z,5.28
2018-09-24T17:02:44.712Z,3.47
2018-09-24T17:06:45.261Z,4.25
2018-09-24T17:10:46.650Z,5.10
2018-09-24T17:14:47.947Z,5.65
2018-09-24T17:18:49.913Z,7.77
2018-09-24T17:22:50.745Z,3.93
2018-09-24T17:26:52.044Z,3.17
2018-09-24T17:30:52.660Z,4.50
2018-09-24T17:34:54.038Z,4.50
2018-09-24T17:38:55.520Z,3.13
2018-09-24T17:42:56.172Z,2.77
2018-09-24T17:46:56.768Z,5.43
2018-09-24T17:50:57.829Z,9.27
2018-09-24T17:54:58.508Z,4.87
2018-09-24T17:58:59.501Z,3.63
2018-09-24T18:03:00.361Z,3.40
2018-09-24T18:07:01.109Z,4.63
2018-09-24T18:11:01.857Z,3.37
2018-09-24T18:15:02.669Z,4.33
2018-09-24T18:19:03.387Z,3.53
2018-09-24T18:23:04.078Z,4.70
2018-09-24T18:27:04.863Z,3.80
2018-09-24T18:31:07.104Z,4.13
2018-09-24T18:35:07.894Z,4.70
2018-09-24T18:39:08.780Z,2.10
2018-09-24T18:43:09.625Z,5.50
2018-09-24T18:47:11.889Z,4.73
2018-09-24T18:51:12.616Z,1.63
2018-09-24T18:55:13.209Z,9.50
2018-09-24T18:59:13.982Z,3.83
2018-09-24T19:03:14.721Z,2.43
2018-09-24T19:07:15.732Z,4.83
2018-09-24T19:11:16.541Z,3.37
2018-09-24T19:15:17.437Z,2.80
2018-09-24T19:19:18.194Z,5.73
2018-09-24T19:23:18.977Z,4.90
2018-09-24T19:27:19.923Z,4.50
2018-09-24T19:31:20.619Z,6.17
2018-09-24T19:35:21.357Z,6.27
2018-09-24T19:39:22.102Z,5.57
2018-09-24T19:43:23.898Z,6.60
2018-09-24T19:47:25.769Z,6.33
2018-09-24T19:51:27.594Z,4.50
2018-09-24T19:55:29.197Z,3.73
2018-09-24T19:59:30.848Z,3.63
2018-09-24T20:03:32.452Z,4.70
2018-09-24T20:07:34.164Z,4.33
2018-09-24T20:11:37.684Z,3.17
2018-09-24T20:15:40.040Z,5.28
2018-09-24T20:19:41.878Z,5.80
2018-09-24T20:23:43.615Z,1.53
2018-09-24T20:27:45.231Z,3.83
2018-09-24T20:31:47.176Z,5.28
2018-09-24T20:35:48.807Z,6.67
2018-09-24T20:39:50.827Z,5.07
2018-09-24T20:43:52.613Z,2.17
2018-09-24T20:47:54.218Z,3.55
2018-09-24T20:51:56.016Z,3.22
2018-09-24T20:55:59.327Z,3.83
2018-09-24T21:00:00.902Z,5.50
2018-09-24T21:04:02.626Z,5.97
2018-09-24T21:08:04.321Z,5.73
2018-09-24T21:12:06.061Z,4.70
2018-09-24T21:16:07.652Z,5.57
2018-09-24T21:20:09.275Z,3.93
2018-09-24T21:24:11.010Z,3.70
2018-09-24T21:28:13.072Z,3.93
2018-09-24T21:32:14.788Z,6.63
2018-09-24T21:36:17.438Z,2.93
2018-09-24T21:40:19.533Z,3.00
2018-09-24T21:44:21.297Z,3.63
2018-09-24T21:48:22.816Z,5.47
2018-09-24T21:52:24.243Z,4.73
2018-09-24T21:56:25.949Z,8.23
2018-09-24T22:00:27.779Z,5.57
2018-09-24T22:04:29.496Z,5.10
2018-09-24T22:08:31.129Z,3.47
2018-09-24T22:12:33.142Z,6.37
2018-09-24T22:16:51.301Z,3.87
2018-09-24T22:20:53.189Z,3.00
2018-09-24T22:24:55.000Z,3.80
2018-09-24T22:28:56.656Z,5.87
2018-09-24T22:32:58.421Z,7.53
2018-09-24T22:37:00.117Z,6.40
2018-09-24T22:41:01.893Z,2.47
2018-09-24T22:45:03.651Z,3.60
2018-09-24T22:49:05.357Z,5.50
2018-09-24T22:53:07.249Z,9.43
2018-09-24T22:57:08.838Z,3.27
2018-09-24T23:01:10.374Z,5.00
2018-09-24T23:05:12.143Z,6.53
2018-09-24T23:09:14.755Z,2.50
2018-09-24T23:13:16.827Z,3.33
2018-09-24T23:17:18.557Z,5.13
2018-09-24T23:21:20.069Z,2.75
2018-09-24T23:25:21.717Z,3.73
2018-09-24T23:29:23.288Z,4.70
2018-09-24T23:33:24.857Z,3.10
2018-09-24T23:37:29.904Z,3.27
2018-09-24T23:41:31.456Z,5.40
2018-09-24T23:45:33.622Z,6.43
2018-09-24T23:49:35.325Z,4.57
2018-09-24T23:53:37.316Z,2.60
2018-09-24T23:57:39.133Z,6.00
